Location:  
MeteoStar


Sort by weather type Sort by elevation Sort by visibility Sort from west to east north Sort from north to south Alphabetically Sort from strongest wind speed Sort from lowest to highest pressure Sort from highest to lowest dew point temperature Sort coolest temperatures to warmest Sort warm temperatures to coolest
 Metric

Current Observations for Turkey

Adana / Incirlik01:50ZPartly Cloudy77 72121009.9NE 4 77239
Adana / Sakirpasa01:50ZPartly Cloudy79 73121010.1N 1 7965
Adapazari02:00ZMostly Cloudy65 62121011.5NNW 3 6598
Akhisar02:00ZClear57 46121013.2WNW 1 57305
Ankara / Central02:00ZClear65 55121006.0SSW 5 652923
Ankara / Esenboga01:50ZClear63 521009.2SW 4 633126
Antalya01:50ZPartly Cloudy77 68121010.0N 7 77164
Aydin02:00ZClear64 51121013.2E 2 64187
Balikesir01:50ZClear55 48121015.0W 3 55331
Batman01:50ZNot Avail.61 46121007.8N 5 611771
Bodrum Milas Airport01:50ZClear59 54121014.1N 1 5919
Canakkale01:50ZPartly Cloudy59 57121014.1NNE 6 599
Cardak01:50ZClear54 46121015.6WSW 4 532785
Corlu01:50ZThunder59 52121013.0NW 10 59567
Dalaman01:50ZNot Avail.64 5051013.1N 2 6422
Diyarbakir01:50ZNot Avail.66 39121007.0N 1 662250
Elazig01:50ZNot Avail.55 34121011.1W 5 552959
Erzincan01:50ZNot Avail.54 39121012.5CALM543792
Erzurum01:50ZNot Avail.45 3012WSW 3 455761
Gaziantep01:50ZNot Avail.70 59121008.9SW 3 702299
Isparta02:00ZPartly Cloudy58 47121011.0WNW 3 583270
Istanbul / Ataturk01:50ZMostly Cloudy64 57121013.1N 14 64157
Izmir / Adnan Menderes01:50ZPartly Cloudy63 52121013.0S 3 63410
Izmir02:00ZClear68 52121013.0SE 5 6882
Kars01:50ZNot Avail.45 3612NW 4 435823
Kayseri / Erkilet01:50ZNot Avail.50 32121011.8CALM503454
Konya01:50ZNot Avail.59 46121010.9NNE 6 593385
Malatya / Erhac01:50ZNot Avail.57 39121010.1SW 5 572828
Mersin02:00ZPartly Cloudy80 71121010.0CALM849
Merzifon01:50ZNot Avail.61 45121005.8N 3 611788
Mugla02:00ZClear59 44121012.4NNW 1 592119
Murted Tur-Afb 02:00ZPartly Cloudy61 53121010.7WSW 6 612765
Mus Tur-Afb 02:29ZNot Avail.54 37121011.3ESE 5 534153
Nevsehir02:20ZNot Avail.59 34121011.0N 3 593100
Samsun02:00ZClear70 57121007.0W 3 7013
Sivas01:50ZNot Avail.54 34121014.2N 1 544215
Tekirdag02:00ZMostly Cloudy62 51121014.0WNW 4 6213
Tokat02:00ZClear64 44121004.9ESE 5 641994
Topel Tur-Afb 01:50ZMostly Cloudy61 6151013.1W 5 61164
Trabzon01:50ZPartly Cloudy72 61121007.0S 4 72114
Van01:50ZClear72 3212SSE 10 725469

Atlantic
Tropical Watch